createdAt,value
2022-08-18T00:01:15.992Z,99.90
2022-08-18T00:03:56.937Z,99.90
2022-08-18T00:06:29.616Z,99.90
2022-08-18T00:08:59.402Z,99.90
2022-08-18T00:11:28.402Z,99.90
2022-08-18T00:14:13.768Z,99.90
2022-08-18T00:16:52.390Z,99.90
2022-08-18T00:19:20.527Z,99.90
2022-08-18T00:22:08.691Z,99.90
2022-08-18T00:24:48.072Z,99.90
2022-08-18T00:27:19.614Z,99.90
2022-08-18T00:29:50.230Z,99.90
2022-08-18T00:32:23.095Z,99.90
2022-08-18T00:34:51.303Z,99.90
2022-08-18T00:37:19.402Z,99.90
2022-08-18T00:39:48.181Z,99.90
2022-08-18T00:42:30.022Z,99.90
2022-08-18T00:45:01.125Z,99.90
2022-08-18T00:47:37.073Z,99.90
2022-08-18T00:50:15.422Z,99.90
2022-08-18T00:52:50.828Z,99.90
2022-08-18T00:55:22.254Z,99.90
2022-08-18T00:57:54.635Z,99.90
2022-08-18T01:00:22.922Z,99.90
2022-08-18T01:02:57.589Z,99.90
2022-08-18T01:05:33.937Z,99.90
2022-08-18T01:08:02.380Z,99.90
2022-08-18T01:10:34.032Z,99.90
2022-08-18T01:13:02.095Z,99.90
2022-08-18T01:15:30.771Z,99.90
2022-08-18T01:18:20.424Z,99.90
2022-08-18T01:21:15.135Z,99.90
2022-08-18T01:23:45.938Z,99.90
2022-08-18T01:26:13.671Z,99.90
2022-08-18T01:28:46.454Z,99.90
2022-08-18T01:31:30.703Z,99.90
2022-08-18T01:33:59.497Z,99.90
2022-08-18T01:41:24.064Z,99.90
2022-08-18T01:43:28.912Z,99.90
2022-08-18T01:46:01.083Z,99.90
2022-08-18T01:48:33.071Z,99.90
2022-08-18T01:51:01.416Z,99.90
2022-08-18T01:53:29.483Z,99.90
2022-08-18T01:55:59.157Z,99.90
2022-08-18T01:58:31.599Z,99.90
2022-08-18T02:01:01.890Z,99.90
2022-08-18T02:03:36.860Z,99.90
2022-08-18T02:06:07.511Z,99.90
2022-08-18T02:08:38.865Z,99.90
2022-08-18T02:11:14.230Z,99.90
2022-08-18T02:13:42.732Z,99.90
2022-08-18T02:16:10.782Z,99.90
2022-08-18T02:18:47.904Z,99.90
2022-08-18T02:21:19.451Z,99.90
2022-08-18T02:23:53.235Z,99.90
2022-08-18T02:30:39.347Z,99.90
2022-08-18T02:33:08.537Z,99.90
2022-08-18T02:35:37.910Z,99.90
2022-08-18T02:38:08.413Z,99.90
2022-08-18T02:40:39.419Z,99.90
2022-08-18T02:43:09.199Z,99.90
2022-08-18T02:45:41.303Z,99.90
2022-08-18T02:48:10.540Z,99.90
2022-08-18T02:55:22.234Z,99.90
2022-08-18T02:57:50.747Z,99.90
2022-08-18T03:05:49.239Z,99.90
2022-08-18T03:08:18.712Z,99.90
2022-08-18T03:10:47.063Z,99.90
2022-08-18T03:13:15.159Z,99.90
2022-08-18T03:15:44.751Z,99.90
2022-08-18T03:18:13.318Z,99.90
2022-08-18T03:20:44.147Z,99.90
2022-08-18T03:23:12.936Z,99.90
2022-08-18T03:25:48.146Z,99.90
2022-08-18T03:28:18.669Z,99.90
2022-08-18T03:30:46.796Z,99.90
2022-08-18T03:33:14.945Z,99.90
2022-08-18T03:35:43.038Z,99.90
2022-08-18T03:38:11.086Z,99.90
2022-08-18T03:40:39.228Z,99.90
2022-08-18T03:43:50.070Z,99.90
2022-08-18T03:45:56.928Z,99.90
2022-08-18T03:48:25.335Z,99.90
2022-08-18T03:50:53.519Z,99.90
2022-08-18T03:53:21.663Z,99.90
2022-08-18T03:55:49.758Z,99.90
2022-08-18T03:58:19.213Z,99.90
2022-08-18T04:00:47.427Z,99.90
2022-08-18T04:03:15.551Z,99.90
2022-08-18T04:05:43.729Z,99.90
2022-08-18T04:08:13.455Z,99.90
2022-08-18T04:10:41.635Z,99.90
2022-08-18T04:13:09.750Z,99.90
2022-08-18T04:15:39.687Z,99.90
2022-08-18T04:18:09.062Z,99.90
2022-08-18T04:20:37.361Z,99.90
2022-08-18T04:23:05.744Z,99.90
2022-08-18T04:25:33.814Z,99.90
2022-08-18T04:28:03.620Z,99.90
2022-08-18T04:30:32.241Z,99.90
2022-08-18T04:33:02.677Z,99.90
2022-08-18T04:35:32.282Z,99.90
2022-08-18T04:38:00.356Z,99.90
2022-08-18T04:40:29.578Z,99.90
2022-08-18T04:42:57.742Z,99.90
2022-08-18T04:45:26.218Z,99.90
2022-08-18T04:47:54.887Z,99.90
2022-08-18T04:50:25.380Z,99.90
2022-08-18T04:53:15.982Z,99.90
2022-08-18T04:55:48.736Z,99.90
2022-08-18T04:58:17.347Z,99.90
2022-08-18T05:00:45.627Z,99.90
2022-08-18T05:03:14.532Z,99.90
2022-08-18T05:05:43.921Z,99.90
2022-08-18T05:16:36.553Z,99.90
2022-08-18T05:19:22.011Z,99.90
2022-08-18T05:21:53.539Z,99.90
2022-08-18T05:24:34.067Z,99.90
2022-08-18T05:27:05.836Z,99.90
2022-08-18T05:29:41.412Z,99.90
2022-08-18T05:32:42.558Z,99.90
2022-08-18T05:35:06.264Z,99.90
2022-08-18T05:37:52.502Z,99.90
2022-08-18T05:40:25.536Z,99.90
2022-08-18T05:42:57.594Z,99.90
2022-08-18T05:45:26.025Z,99.90
2022-08-18T05:47:59.978Z,99.90
2022-08-18T05:50:30.510Z,99.90
2022-08-18T05:53:05.574Z,99.90
2022-08-18T05:56:05.173Z,99.90
2022-08-18T05:58:36.677Z,99.90
2022-08-18T06:01:08.963Z,99.90
2022-08-18T06:03:45.118Z,99.90
2022-08-18T06:06:19.873Z,99.90
2022-08-18T06:08:57.505Z,99.90
2022-08-18T06:11:25.944Z,99.90
2022-08-18T06:13:59.291Z,99.90
2022-08-18T06:16:42.029Z,99.90
2022-08-18T06:19:26.482Z,99.90
2022-08-18T06:22:08.683Z,99.90
2022-08-18T06:24:50.536Z,99.90
2022-08-18T06:27:26.989Z,99.90
2022-08-18T06:30:05.324Z,99.90
2022-08-18T06:32:47.313Z,99.90
2022-08-18T06:35:20.046Z,99.90
2022-08-18T06:38:11.896Z,99.90
2022-08-18T06:40:41.965Z,99.90
2022-08-18T06:43:16.181Z,99.90
2022-08-18T06:45:51.989Z,99.90
2022-08-18T06:48:26.180Z,99.90
2022-08-18T06:50:57.204Z,99.90
2022-08-18T06:53:55.741Z,99.90
2022-08-18T06:56:28.472Z,99.90
2022-08-18T06:59:14.495Z,99.90
2022-08-18T07:01:43.110Z,99.90
2022-08-18T07:04:11.294Z,99.90
2022-08-18T07:06:39.370Z,99.90
2022-08-18T07:09:24.140Z,99.90
2022-08-18T07:12:05.930Z,99.90
2022-08-18T07:14:43.083Z,99.90
2022-08-18T07:17:14.164Z,99.90
2022-08-18T07:19:42.576Z,99.90
2022-08-18T07:22:13.600Z,99.90
2022-08-18T07:24:46.415Z,99.90
2022-08-18T07:27:17.542Z,99.90
2022-08-18T07:30:03.627Z,99.90
2022-08-18T07:32:37.987Z,99.90
2022-08-18T07:35:10.302Z,99.90
2022-08-18T07:37:44.832Z,99.90
2022-08-18T07:40:24.984Z,99.90
2022-08-18T07:43:02.041Z,99.90
2022-08-18T07:45:37.179Z,99.90
2022-08-18T07:48:34.909Z,99.90
2022-08-18T07:51:09.119Z,99.90
2022-08-18T07:53:55.900Z,99.80
2022-08-18T07:56:34.997Z,99.90
2022-08-18T07:59:09.195Z,99.90
2022-08-18T08:01:48.763Z,99.90
2022-08-18T08:04:27.431Z,99.90
2022-08-18T08:07:23.959Z,99.90
2022-08-18T08:10:08.680Z,98.80
2022-08-18T08:12:44.933Z,99.90
2022-08-18T08:15:26.647Z,99.90
2022-08-18T08:18:03.112Z,99.90
2022-08-18T08:20:37.858Z,99.90
2022-08-18T08:23:17.423Z,99.90
2022-08-18T08:25:57.659Z,99.90
2022-08-18T08:28:37.862Z,99.90
2022-08-18T08:31:35.566Z,99.90
2022-08-18T08:34:07.902Z,99.90
2022-08-18T08:36:39.835Z,99.90
2022-08-18T08:39:14.428Z,99.90
2022-08-18T08:41:51.906Z,99.90
2022-08-18T08:44:26.346Z,99.90
2022-08-18T08:47:00.031Z,99.90
2022-08-18T08:49:35.968Z,99.90
2022-08-18T08:52:10.373Z,99.90
2022-08-18T08:54:45.510Z,99.90
2022-08-18T08:57:15.934Z,99.90
2022-08-18T08:59:48.340Z,99.90
2022-08-18T09:02:48.526Z,99.90
2022-08-18T09:05:21.415Z,99.90
2022-08-18T09:08:17.672Z,99.90
2022-08-18T09:11:05.034Z,99.90
2022-08-18T09:14:10.698Z,99.90
2022-08-18T09:16:55.823Z,99.90
2022-08-18T09:19:41.433Z,99.90
2022-08-18T09:22:17.226Z,99.90
2022-08-18T09:24:49.405Z,99.90
2022-08-18T09:27:53.798Z,99.90
2022-08-18T09:33:54.686Z,99.40
2022-08-18T09:36:34.805Z,97.40
2022-08-18T09:39:40.074Z,96.60
2022-08-18T09:42:14.262Z,95.20
2022-08-18T09:45:09.581Z,96.30
2022-08-18T09:47:58.974Z,96.30
2022-08-18T09:50:53.090Z,96.30
2022-08-18T09:53:53.633Z,95.50
2022-08-18T09:57:00.412Z,97.70
2022-08-18T10:00:26.520Z,99.40
2022-08-18T10:06:28.760Z,99.90
2022-08-18T10:12:29.530Z,97.90
2022-08-18T10:15:10.971Z,96.50
2022-08-18T10:17:51.866Z,96.50
2022-08-18T10:20:31.642Z,98.10
2022-08-18T10:23:01.238Z,99.90
2022-08-18T10:25:36.897Z,99.90
2022-08-18T10:28:06.955Z,99.90
2022-08-18T10:31:09.701Z,99.90
2022-08-18T10:34:01.066Z,99.90
2022-08-18T10:36:52.410Z,99.90
2022-08-18T10:39:25.901Z,99.90
2022-08-18T10:42:06.286Z,99.90
2022-08-18T10:44:46.700Z,99.90
2022-08-18T10:47:24.939Z,99.90
2022-08-18T10:50:07.902Z,99.90
2022-08-18T10:53:16.942Z,99.90
2022-08-18T10:56:01.195Z,99.90
2022-08-18T10:58:58.915Z,99.90
2022-08-18T11:01:39.403Z,99.90
2022-08-18T11:07:08.180Z,99.90
2022-08-18T11:13:01.990Z,99.90
2022-08-18T11:15:48.112Z,99.90
2022-08-18T11:18:31.483Z,99.90
2022-08-18T11:21:24.971Z,99.90
2022-08-18T11:24:07.678Z,99.90
2022-08-18T11:26:41.052Z,99.90
2022-08-18T11:29:26.916Z,99.90
2022-08-18T11:32:02.069Z,99.90
2022-08-18T11:34:37.275Z,99.90
2022-08-18T11:37:09.285Z,99.90
2022-08-18T11:39:49.242Z,99.90
2022-08-18T11:42:25.064Z,99.90
2022-08-18T11:45:03.317Z,99.90
2022-08-18T11:47:31.616Z,99.90
2022-08-18T11:50:09.317Z,99.90
2022-08-18T11:52:53.644Z,99.90
2022-08-18T11:55:29.856Z,99.90
2022-08-18T11:58:00.590Z,99.90
2022-08-18T12:00:48.713Z,99.90
2022-08-18T12:03:28.486Z,99.90
2022-08-18T12:05:59.573Z,99.90
2022-08-18T12:11:29.319Z,99.90
2022-08-18T12:14:30.346Z,99.90
2022-08-18T12:16:59.661Z,99.90
2022-08-18T12:19:31.211Z,99.90
2022-08-18T12:22:11.621Z,99.90
2022-08-18T12:24:40.228Z,99.90
2022-08-18T12:27:13.259Z,99.90
2022-08-18T12:29:50.676Z,99.90
2022-08-18T12:32:41.518Z,99.90
2022-08-18T12:35:12.904Z,99.90
2022-08-18T12:38:12.285Z,99.90
2022-08-18T12:40:33.651Z,99.90
2022-08-18T12:43:01.817Z,99.90
2022-08-18T12:45:31.228Z,99.90
2022-08-18T12:50:55.500Z,99.90
2022-08-18T12:53:57.975Z,99.90
2022-08-18T12:56:30.219Z,99.90
2022-08-18T12:59:00.507Z,99.90
2022-08-18T13:01:32.424Z,99.90
2022-08-18T13:04:12.818Z,99.90
2022-08-18T13:06:59.853Z,99.90
2022-08-18T13:09:52.766Z,99.90
2022-08-18T13:12:21.390Z,99.90
2022-08-18T13:14:51.325Z,99.90
2022-08-18T13:17:33.124Z,99.90
2022-08-18T13:20:06.186Z,99.90
2022-08-18T13:22:35.932Z,99.90
2022-08-18T13:25:07.036Z,99.90
2022-08-18T13:27:35.599Z,99.90
2022-08-18T13:30:29.608Z,99.90
2022-08-18T13:32:58.977Z,99.90
2022-08-18T13:35:38.321Z,99.90
2022-08-18T13:38:17.458Z,99.90
2022-08-18T13:40:49.882Z,99.90
2022-08-18T13:43:21.746Z,99.90
2022-08-18T13:45:53.432Z,99.90
2022-08-18T13:48:25.459Z,99.90
2022-08-18T13:50:56.661Z,99.90
2022-08-18T13:53:26.280Z,99.90
2022-08-18T13:55:58.570Z,99.90
2022-08-18T13:58:27.306Z,99.90
2022-08-18T14:01:16.230Z,99.90
2022-08-18T14:03:47.908Z,99.90
2022-08-18T14:06:22.687Z,99.90
2022-08-18T14:08:52.552Z,99.90
2022-08-18T14:11:25.720Z,99.90
2022-08-18T14:13:54.701Z,99.90
2022-08-18T14:16:23.437Z,99.90
2022-08-18T14:19:12.835Z,99.90
2022-08-18T14:22:03.704Z,99.90
2022-08-18T14:24:50.736Z,99.90
2022-08-18T14:27:20.672Z,99.90
2022-08-18T14:29:50.377Z,99.90
2022-08-18T14:32:29.038Z,99.90
2022-08-18T14:35:00.000Z,99.90
2022-08-18T14:37:31.191Z,99.90
2022-08-18T14:40:02.105Z,99.90
2022-08-18T14:42:41.412Z,99.90
2022-08-18T14:45:27.927Z,99.90
2022-08-18T14:48:06.667Z,99.90
2022-08-18T14:50:36.109Z,99.90
2022-08-18T14:53:06.667Z,99.90
2022-08-18T14:55:35.049Z,99.90
2022-08-18T14:58:04.332Z,99.90
2022-08-18T15:00:53.436Z,99.90
2022-08-18T15:03:31.331Z,99.90
2022-08-18T15:06:04.586Z,99.90
2022-08-18T15:08:35.756Z,99.90
2022-08-18T15:11:11.638Z,99.90
2022-08-18T15:13:41.588Z,99.90
2022-08-18T15:16:13.505Z,99.90
2022-08-18T15:18:41.823Z,99.90
2022-08-18T15:21:35.639Z,99.90
2022-08-18T15:24:26.328Z,99.90
2022-08-18T15:26:58.170Z,99.90
2022-08-18T15:29:32.102Z,99.90
2022-08-18T15:32:06.094Z,99.90
2022-08-18T15:34:46.653Z,99.90
2022-08-18T15:37:20.371Z,99.90
2022-08-18T15:40:05.362Z,99.90
2022-08-18T15:42:33.713Z,99.90
2022-08-18T15:45:11.290Z,99.90
2022-08-18T15:47:41.246Z,99.90
2022-08-18T15:50:25.295Z,99.90
2022-08-18T15:52:57.698Z,99.90
2022-08-18T15:55:32.971Z,99.90
2022-08-18T15:58:10.931Z,99.90
2022-08-18T16:00:45.506Z,99.90
2022-08-18T16:03:15.291Z,99.90
2022-08-18T16:05:52.827Z,99.90
2022-08-18T16:08:22.818Z,99.90
2022-08-18T16:10:53.486Z,99.90
2022-08-18T16:13:21.639Z,99.90
2022-08-18T16:15:50.385Z,99.90
2022-08-18T16:18:21.028Z,99.90
2022-08-18T16:20:52.590Z,99.90
2022-08-18T16:23:22.119Z,99.90
2022-08-18T16:25:51.582Z,99.90
2022-08-18T16:28:19.622Z,99.90
2022-08-18T16:30:48.443Z,99.90
2022-08-18T16:33:16.497Z,99.90
2022-08-18T16:35:45.294Z,99.90
2022-08-18T16:38:13.840Z,99.90
2022-08-18T16:40:42.134Z,99.90
2022-08-18T16:43:13.006Z,99.90
2022-08-18T16:45:42.994Z,99.90
2022-08-18T16:48:15.211Z,99.90
2022-08-18T16:50:46.175Z,99.90
2022-08-18T16:53:14.420Z,99.90
2022-08-18T16:55:43.742Z,99.90
2022-08-18T16:58:30.875Z,99.90
2022-08-18T17:01:50.573Z,99.90
2022-08-18T17:04:20.978Z,99.90
2022-08-18T17:06:49.654Z,99.90
2022-08-18T17:09:17.909Z,99.90
2022-08-18T17:11:48.003Z,99.90
2022-08-18T17:14:22.402Z,99.90
2022-08-18T17:16:54.821Z,99.90
2022-08-18T17:19:24.107Z,99.90
2022-08-18T17:21:52.387Z,99.90
2022-08-18T17:24:31.218Z,99.90
2022-08-18T17:27:25.682Z,99.90
2022-08-18T17:30:06.954Z,99.90
2022-08-18T17:32:51.585Z,99.90
2022-08-18T17:35:25.091Z,99.90
2022-08-18T17:38:00.291Z,99.90
2022-08-18T17:40:37.623Z,99.90
2022-08-18T17:43:08.062Z,99.90
2022-08-18T17:45:37.798Z,99.90
2022-08-18T17:48:14.505Z,99.90
2022-08-18T17:51:05.531Z,99.90
2022-08-18T17:53:36.267Z,99.90
2022-08-18T17:56:11.392Z,99.90
2022-08-18T17:58:43.737Z,99.90
2022-08-18T18:01:13.943Z,99.90
2022-08-18T18:03:43.850Z,99.90
2022-08-18T18:06:30.183Z,99.90
2022-08-18T18:09:00.497Z,99.90
2022-08-18T18:11:32.308Z,99.90
2022-08-18T18:14:01.497Z,99.90
2022-08-18T18:16:35.399Z,99.90
2022-08-18T18:19:07.737Z,99.90
2022-08-18T18:22:00.458Z,99.90
2022-08-18T18:24:31.607Z,99.90
2022-08-18T18:27:00.086Z,99.90
2022-08-18T18:29:35.708Z,99.90
2022-08-18T18:32:24.372Z,99.90
2022-08-18T18:35:15.160Z,99.90
2022-08-18T18:37:51.282Z,99.90
2022-08-18T18:40:25.780Z,99.90
2022-08-18T18:42:55.492Z,99.90
2022-08-18T18:45:28.328Z,99.90
2022-08-18T18:48:06.328Z,99.90
2022-08-18T18:50:52.926Z,99.90
2022-08-18T18:53:42.384Z,99.90
2022-08-18T18:56:19.173Z,99.90
2022-08-18T18:58:59.418Z,99.90
2022-08-18T19:01:36.103Z,99.90
2022-08-18T19:04:11.337Z,99.90
2022-08-18T19:06:46.046Z,99.90
2022-08-18T19:09:20.708Z,99.90
2022-08-18T19:12:05.434Z,99.90
2022-08-18T19:14:37.826Z,99.90
2022-08-18T19:17:13.762Z,99.90
2022-08-18T19:19:50.511Z,99.90
2022-08-18T19:22:24.791Z,99.90
2022-08-18T19:24:59.160Z,99.90
2022-08-18T19:27:34.241Z,99.90
2022-08-18T19:30:06.569Z,99.90
2022-08-18T19:32:39.776Z,99.90
2022-08-18T19:35:14.457Z,99.90
2022-08-18T19:37:58.659Z,99.90
2022-08-18T19:40:36.808Z,99.90
2022-08-18T19:43:12.440Z,99.90
2022-08-18T19:45:47.709Z,99.90
2022-08-18T19:48:21.419Z,99.90
2022-08-18T19:50:54.977Z,99.90
2022-08-18T19:53:52.801Z,99.90
2022-08-18T19:56:42.696Z,99.90
2022-08-18T19:59:46.219Z,99.90
2022-08-18T20:02:28.568Z,99.90
2022-08-18T20:05:11.114Z,99.90
2022-08-18T20:08:08.955Z,99.90
2022-08-18T20:10:55.088Z,99.90
2022-08-18T20:13:35.271Z,99.90
2022-08-18T20:16:28.648Z,99.90
2022-08-18T20:19:43.654Z,99.90
2022-08-18T20:22:29.283Z,99.90
2022-08-18T20:25:06.127Z,99.90
2022-08-18T20:27:37.019Z,99.90
2022-08-18T20:30:25.059Z,99.90
2022-08-18T20:33:20.546Z,99.90
2022-08-18T20:35:59.396Z,99.90
2022-08-18T20:38:34.744Z,99.90
2022-08-18T20:41:50.626Z,99.90
2022-08-18T20:44:57.300Z,99.90
2022-08-18T20:47:49.922Z,99.90
2022-08-18T20:50:36.619Z,99.90
2022-08-18T20:53:15.975Z,99.90
2022-08-18T20:55:56.417Z,99.90
2022-08-18T21:10:20.029Z,99.90
2022-08-18T21:12:52.808Z,99.90
2022-08-18T21:15:24.260Z,99.90
2022-08-18T21:17:59.087Z,99.90
2022-08-18T21:20:29.182Z,99.90
2022-08-18T21:38:32.605Z,99.90
2022-08-18T21:41:02.708Z,99.90
2022-08-18T21:43:48.920Z,99.90
2022-08-18T21:46:25.585Z,99.90
2022-08-18T21:48:56.096Z,99.90
2022-08-18T21:51:27.677Z,99.90
2022-08-18T21:53:57.885Z,99.90
2022-08-18T21:56:28.968Z,99.90
2022-08-18T21:59:09.601Z,99.90
2022-08-18T22:01:39.522Z,99.90
2022-08-18T22:04:24.245Z,99.90
2022-08-18T22:06:55.398Z,99.90
2022-08-18T22:09:44.442Z,99.90
2022-08-18T22:12:42.279Z,99.90
2022-08-18T22:15:12.640Z,99.90
2022-08-18T22:17:54.162Z,99.90
2022-08-18T22:20:41.504Z,99.90
2022-08-18T22:23:43.593Z,99.90
2022-08-18T22:26:15.518Z,99.90
2022-08-18T22:28:51.033Z,99.90
2022-08-18T22:31:21.436Z,99.90
2022-08-18T22:33:50.306Z,99.90
2022-08-18T22:36:22.242Z,99.90
2022-08-18T22:38:52.450Z,99.90
2022-08-18T22:41:22.956Z,99.90
2022-08-18T22:43:55.175Z,99.90
2022-08-18T22:46:25.103Z,99.90
2022-08-18T22:48:53.975Z,99.90
2022-08-18T22:51:25.075Z,99.90
2022-08-18T22:53:53.932Z,99.90
2022-08-18T22:56:34.982Z,99.90
2022-08-18T22:59:13.549Z,99.90
2022-08-18T23:01:45.045Z,99.90
2022-08-18T23:04:13.605Z,99.90
2022-08-18T23:06:42.443Z,99.90
2022-08-18T23:09:10.635Z,99.90
2022-08-18T23:11:40.116Z,99.90
2022-08-18T23:14:08.170Z,99.90
2022-08-18T23:16:36.330Z,99.90
2022-08-18T23:19:04.411Z,99.90
2022-08-18T23:21:34.578Z,99.90
2022-08-18T23:24:04.768Z,99.90
2022-08-18T23:26:34.183Z,99.90
2022-08-18T23:29:04.000Z,99.90
2022-08-18T23:31:32.353Z,99.90
2022-08-18T23:34:00.987Z,99.90
2022-08-18T23:36:30.030Z,99.90
2022-08-18T23:38:58.735Z,99.90
2022-08-18T23:41:26.946Z,99.90
2022-08-18T23:43:55.215Z,99.90
2022-08-18T23:46:28.585Z,99.90
2022-08-18T23:48:59.273Z,99.90
2022-08-18T23:51:30.310Z,99.90
2022-08-18T23:54:00.508Z,99.90
2022-08-18T23:56:30.037Z,99.90
2022-08-18T23:58:58.996Z,99.90
